Time;durP1;ratioP1;P1;durP2;ratioP2;P2;SDS_P1;SDS_P2;PMS_P1;PMS_P2;Temp;Humidity;BMP_temperature;BMP_pressure;BME280_temperature;BME280_humidity;BME280_pressure;Samples;Min_cycle;Max_cycle;Signal;HPM_P1;HPM_P2
2022/10/13 00:00:41;;;;;;;20.10;10.30;;;10.40;99.90;;;;;;4993901;28;20447;-76
2022/10/13 00:03:06;;;;;;;19.05;9.93;;;10.40;99.90;;;;;;4977443;28;20066;-76
2022/10/13 00:05:33;;;;;;;17.58;10.15;;;10.40;99.90;;;;;;4994506;28;20077;-76
2022/10/13 00:07:59;;;;;;;17.90;10.00;;;10.40;99.90;;;;;;4977339;28;20042;-76
2022/10/13 00:10:25;;;;;;;15.25;9.77;;;10.60;99.90;;;;;;4976985;28;20042;-76
2022/10/13 00:12:51;;;;;;;21.40;10.93;;;10.70;99.90;;;;;;4994077;28;20181;-76
2022/10/13 00:15:17;;;;;;;17.20;9.98;;;10.70;99.90;;;;;;4977149;28;20046;-76
2022/10/13 00:17:43;;;;;;;18.77;10.15;;;10.70;99.90;;;;;;4993825;28;20049;-76
2022/10/13 00:20:09;;;;;;;16.27;10.05;;;10.60;99.90;;;;;;4992235;28;20412;-76
2022/10/13 00:22:35;;;;;;;17.35;10.32;;;10.50;99.90;;;;;;4993870;28;20038;-75
2022/10/13 00:25:01;;;;;;;20.70;11.57;;;10.40;99.90;;;;;;4976346;28;20121;-75
2022/10/13 00:27:26;;;;;;;16.67;10.10;;;10.40;99.90;;;;;;4993742;28;20069;-75
2022/10/13 00:29:52;;;;;;;18.10;10.25;;;10.30;99.90;;;;;;4992957;28;20046;-75
2022/10/13 00:32:18;;;;;;;19.65;10.40;;;10.40;99.90;;;;;;4976904;28;20050;-75
2022/10/13 00:34:43;;;;;;;16.58;9.93;;;10.30;99.90;;;;;;4992800;28;20499;-75
2022/10/13 00:37:09;;;;;;;16.25;10.18;;;10.30;99.90;;;;;;4992797;28;20405;-75
2022/10/13 00:39:36;;;;;;;19.65;10.65;;;10.30;99.90;;;;;;4976851;28;21342;-76
2022/10/13 00:42:02;;;;;;;18.20;10.10;;;10.30;99.90;;;;;;4976525;28;20101;-75
2022/10/13 00:45:00;;;;;;;17.88;9.90;;;10.30;99.90;;;;;;4977303;28;20500;-75
2022/10/13 00:47:40;;;;;;;17.02;10.70;;;10.40;99.90;;;;;;5006569;28;20035;-75
2022/10/13 00:50:09;;;;;;;18.60;10.40;;;10.40;99.90;;;;;;4979722;28;20045;-75
2022/10/13 00:52:37;;;;;;;17.42;9.98;;;10.40;99.90;;;;;;4992993;28;20035;-75
2022/10/13 00:55:05;;;;;;;17.92;10.75;;;10.30;99.90;;;;;;4993542;28;20129;-76
2022/10/13 00:57:32;;;;;;;17.63;9.85;;;10.30;99.90;;;;;;4993053;28;20408;-75
2022/10/13 00:59:59;;;;;;;16.42;10.57;;;10.30;99.90;;;;;;4992474;28;20053;-75
2022/10/13 01:02:31;;;;;;;18.98;10.88;;;10.30;99.90;;;;;;4991595;28;20042;-76
2022/10/13 01:04:58;;;;;;;16.98;10.70;;;10.30;99.90;;;;;;5009553;28;20035;-76
2022/10/13 01:07:24;;;;;;;19.08;10.57;;;10.30;99.90;;;;;;5025347;28;20404;-76
2022/10/13 01:09:50;;;;;;;21.52;11.13;;;10.30;99.90;;;;;;4976927;28;20042;-76
2022/10/13 01:12:30;;;;;;;15.23;10.27;;;10.40;99.90;;;;;;4993075;28;20053;-75
2022/10/13 01:15:14;;;;;;;18.42;10.98;;;10.30;99.90;;;;;;4992447;28;20042;-75
2022/10/13 01:17:59;;;;;;;20.92;11.50;;;10.30;99.90;;;;;;4992968;28;20051;-75
2022/10/13 01:20:39;;;;;;;18.13;10.73;;;10.30;99.90;;;;;;4991231;28;20129;-75
2022/10/13 01:23:29;;;;;;;18.90;9.98;;;10.30;99.90;;;;;;4976897;28;20392;-75
2022/10/13 01:26:07;;;;;;;19.88;11.02;;;10.30;99.90;;;;;;4992204;28;20189;-76
2022/10/13 01:28:54;;;;;;;18.80;11.18;;;10.30;99.90;;;;;;4975600;28;20089;-76
2022/10/13 01:31:44;;;;;;;17.35;10.27;;;10.30;99.90;;;;;;4992984;28;20046;-76
2022/10/13 01:34:35;;;;;;;17.25;10.93;;;10.30;99.90;;;;;;4998143;28;20388;-76
2022/10/13 01:37:28;;;;;;;18.10;10.88;;;10.30;99.90;;;;;;4992615;28;20077;-75
2022/10/13 01:40:24;;;;;;;18.10;10.70;;;10.30;99.90;;;;;;4990918;28;20030;-75
2022/10/13 01:43:17;;;;;;;17.85;10.38;;;10.30;99.90;;;;;;4992681;28;20077;-75
2022/10/13 01:45:51;;;;;;;17.30;11.18;;;10.30;99.90;;;;;;4991741;28;20034;-75
2022/10/13 01:48:18;;;;;;;18.77;10.95;;;10.30;99.90;;;;;;4973867;28;20044;-75
2022/10/13 01:50:45;;;;;;;20.48;11.30;;;10.50;99.90;;;;;;4991521;28;20046;-75
2022/10/13 01:53:12;;;;;;;19.05;11.30;;;10.60;99.90;;;;;;4992488;28;20125;-75
2022/10/13 01:55:57;;;;;;;22.50;11.20;;;10.50;99.90;;;;;;4991718;28;20034;-75
2022/10/13 01:58:26;;;;;;;18.98;11.32;;;10.50;99.90;;;;;;4992217;28;20054;-75
2022/10/13 02:01:09;;;;;;;20.83;11.98;;;10.50;99.90;;;;;;4991765;28;20125;-75
2022/10/13 02:04:11;;;;;;;19.33;11.13;;;10.60;99.90;;;;;;4973998;28;20038;-75
2022/10/13 02:06:51;;;;;;;21.50;11.18;;;10.70;99.90;;;;;;4981172;28;20042;-75
2022/10/13 02:09:34;;;;;;;21.73;11.23;;;10.60;99.90;;;;;;4992278;28;20092;-75
2022/10/13 02:12:13;;;;;;;23.13;11.52;;;10.50;99.90;;;;;;4991260;28;20144;-75
2022/10/13 02:14:41;;;;;;;19.88;11.02;;;10.40;99.90;;;;;;4992572;28;20034;-75
2022/10/13 02:17:08;;;;;;;17.85;11.20;;;10.40;99.90;;;;;;4976021;28;20567;-75
2022/10/13 02:19:37;;;;;;;17.27;11.27;;;10.40;99.90;;;;;;4992192;28;20046;-76
2022/10/13 02:22:04;;;;;;;16.73;11.40;;;10.40;99.90;;;;;;4988600;28;20049;-76
2022/10/13 02:24:29;;;;;;;19.35;11.88;;;10.30;99.90;;;;;;4991774;28;20492;-76
2022/10/13 02:26:56;;;;;;;18.77;11.60;;;10.30;99.90;;;;;;5023734;28;20042;-76
2022/10/13 02:29:22;;;;;;;17.45;11.90;;;10.30;99.90;;;;;;4992269;28;20440;-76
2022/10/13 02:31:47;;;;;;;17.83;10.75;;;10.40;99.90;;;;;;4990613;28;20034;-76
2022/10/13 02:34:14;;;;;;;17.75;10.98;;;10.30;99.90;;;;;;4992411;28;20089;-75
2022/10/13 02:36:40;;;;;;;18.48;11.43;;;10.40;99.90;;;;;;4992183;28;20034;-75
2022/10/13 02:39:11;;;;;;;17.63;11.07;;;10.40;99.90;;;;;;4975806;28;20524;-75
2022/10/13 02:41:37;;;;;;;16.98;11.13;;;10.30;99.90;;;;;;4974896;28;20072;-76
2022/10/13 02:44:03;;;;;;;20.58;12.07;;;10.40;99.90;;;;;;4991376;28;20070;-75
2022/10/13 02:46:29;;;;;;;19.35;11.80;;;10.40;99.90;;;;;;4975305;28;20042;-75
2022/10/13 02:48:54;;;;;;;18.63;11.45;;;10.30;99.90;;;;;;4991840;28;20393;-76
2022/10/13 02:51:20;;;;;;;20.52;12.07;;;10.30;99.90;;;;;;4975815;28;20042;-76
2022/10/13 02:53:45;;;;;;;21.20;12.40;;;10.30;99.90;;;;;;4975061;28;20045;-75
2022/10/13 02:56:11;;;;;;;16.98;10.93;;;10.30;99.90;;;;;;4992180;28;20045;-75
2022/10/13 02:58:37;;;;;;;21.02;12.52;;;10.40;99.90;;;;;;4994379;28;20379;-76
2022/10/13 03:01:11;;;;;;;18.60;11.70;;;10.30;99.90;;;;;;4994965;28;20456;-75
2022/10/13 03:03:36;;;;;;;21.13;12.50;;;10.40;99.90;;;;;;4994307;28;20051;-75
2022/10/13 03:06:02;;;;;;;19.40;11.57;;;10.40;99.90;;;;;;5011897;28;20389;-75
2022/10/13 03:08:28;;;;;;;18.92;10.85;;;10.40;99.90;;;;;;4995414;28;20054;-76
2022/10/13 03:10:54;;;;;;;17.00;11.20;;;10.40;99.90;;;;;;4978678;28;20112;-76
2022/10/13 03:13:20;;;;;;;21.40;12.27;;;10.50;99.90;;;;;;4977803;28;20496;-76
2022/10/13 03:15:46;;;;;;;20.45;12.27;;;10.40;99.90;;;;;;4995484;28;20378;-75
2022/10/13 03:18:12;;;;;;;18.77;12.00;;;10.40;99.90;;;;;;4995015;28;20046;-75
2022/10/13 03:20:38;;;;;;;17.00;10.68;;;10.40;99.90;;;;;;4993277;28;20034;-75
2022/10/13 03:23:05;;;;;;;21.23;12.60;;;10.50;99.90;;;;;;4994607;28;20068;-76
2022/10/13 03:25:32;;;;;;;19.23;11.98;;;10.50;99.90;;;;;;4978811;28;20093;-75
2022/10/13 03:27:57;;;;;;;19.20;12.32;;;10.50;99.90;;;;;;4994281;28;20403;-75
2022/10/13 03:30:23;;;;;;;17.85;11.40;;;10.50;99.90;;;;;;4978608;28;20046;-75
2022/10/13 03:32:49;;;;;;;22.20;12.80;;;10.50;99.90;;;;;;4977787;28;20049;-75
2022/10/13 03:35:14;;;;;;;19.33;11.95;;;10.50;99.90;;;;;;4994074;28;20535;-75
2022/10/13 03:37:40;;;;;;;20.38;12.55;;;10.40;99.90;;;;;;4978556;28;20492;-75
2022/10/13 03:40:06;;;;;;;19.25;11.23;;;10.40;99.90;;;;;;4978372;28;20042;-75
2022/10/13 03:42:35;;;;;;;19.58;12.45;;;10.40;99.90;;;;;;4978446;28;20038;-75
2022/10/13 03:45:01;;;;;;;18.52;11.98;;;10.40;99.90;;;;;;4977865;28;20070;-75
2022/10/13 03:47:27;;;;;;;20.05;12.50;;;10.40;99.90;;;;;;4994594;28;20046;-75
2022/10/13 03:49:53;;;;;;;19.73;12.20;;;10.40;99.90;;;;;;4993700;28;20053;-75
2022/10/13 03:52:20;;;;;;;22.30;12.55;;;10.40;99.90;;;;;;4993735;28;20050;-75
2022/10/13 03:54:45;;;;;;;18.10;12.18;;;10.40;99.90;;;;;;4994467;28;20536;-74
2022/10/13 03:57:11;;;;;;;23.48;12.82;;;10.40;99.90;;;;;;4994194;28;20140;-74
2022/10/13 03:59:41;;;;;;;20.20;12.25;;;10.40;99.90;;;;;;4977497;28;20051;-74
2022/10/13 04:02:06;;;;;;;18.27;12.75;;;10.40;99.90;;;;;;4993405;28;20034;-74
2022/10/13 04:04:33;;;;;;;27.05;13.23;;;10.40;99.90;;;;;;5010612;28;20104;-73
2022/10/13 04:06:59;;;;;;;19.50;13.07;;;10.40;99.90;;;;;;4976640;28;20121;-74
2022/10/13 04:09:25;;;;;;;18.85;12.48;;;10.40;99.90;;;;;;4974919;28;21721;-74
2022/10/13 04:11:51;;;;;;;22.13;13.18;;;10.40;99.90;;;;;;4991089;28;20504;-74
2022/10/13 04:14:18;;;;;;;19.63;13.40;;;10.40;99.90;;;;;;5006546;28;20041;-74
2022/10/13 04:16:43;;;;;;;18.27;13.00;;;10.40;99.90;;;;;;5004632;28;20035;-74
2022/10/13 04:19:11;;;;;;;19.70;14.32;;;10.40;99.90;;;;;;5007108;28;20389;-74
2022/10/13 04:21:36;;;;;;;22.05;13.82;;;10.40;99.90;;;;;;4992062;28;20142;-74
2022/10/13 04:24:03;;;;;;;21.73;13.75;;;10.40;99.90;;;;;;5026583;28;20554;-74
2022/10/13 04:26:31;;;;;;;19.73;12.88;;;10.40;99.90;;;;;;4991368;28;20074;-74
2022/10/13 04:28:57;;;;;;;19.10;12.38;;;10.40;99.90;;;;;;4993428;28;20053;-74
2022/10/13 04:31:24;;;;;;;22.35;13.82;;;10.40;99.90;;;;;;5019112;28;20046;-75
2022/10/13 04:33:50;;;;;;;19.92;12.77;;;10.50;99.90;;;;;;4993944;28;20069;-75
2022/10/13 04:36:17;;;;;;;20.80;14.02;;;10.50;99.90;;;;;;5025702;28;20038;-74
2022/10/13 04:38:43;;;;;;;20.85;13.57;;;10.50;99.90;;;;;;4977325;28;20035;-75
2022/10/13 04:41:12;;;;;;;23.00;13.85;;;10.50;99.90;;;;;;4974948;28;20046;-75
2022/10/13 04:43:38;;;;;;;18.60;12.98;;;10.50;99.90;;;;;;5000402;28;20040;-75
2022/10/13 04:46:11;;;;;;;22.17;12.82;;;10.40;99.90;;;;;;4986057;28;20248;-75
2022/10/13 04:48:37;;;;;;;19.45;13.32;;;10.40;99.90;;;;;;4992991;28;20045;-75
2022/10/13 04:51:07;;;;;;;22.30;12.93;;;10.40;99.90;;;;;;4975822;28;20492;-75
2022/10/13 04:53:33;;;;;;;22.73;13.80;;;10.60;99.90;;;;;;4976448;28;20470;-75
2022/10/13 04:56:01;;;;;;;22.92;13.30;;;10.60;99.90;;;;;;4990618;28;20484;-75
2022/10/13 04:58:27;;;;;;;21.73;13.52;;;10.50;99.90;;;;;;4990682;28;20057;-74
2022/10/13 05:00:52;;;;;;;20.80;13.85;;;10.60;99.90;;;;;;4988192;28;20030;-74
2022/10/13 05:03:18;;;;;;;20.40;13.10;;;10.60;99.90;;;;;;4991933;28;20049;-75
2022/10/13 05:05:44;;;;;;;22.15;14.98;;;10.70;99.90;;;;;;4992652;28;20058;-75
2022/10/13 05:08:09;;;;;;;21.50;14.73;;;10.60;99.90;;;;;;4990689;28;20038;-75
2022/10/13 05:10:35;;;;;;;21.40;14.40;;;10.50;99.90;;;;;;4992209;28;20038;-75
2022/10/13 05:13:00;;;;;;;22.80;14.18;;;10.50;99.90;;;;;;5007401;28;20496;-75
2022/10/13 05:15:26;;;;;;;23.10;15.48;;;10.60;99.90;;;;;;5009505;28;20042;-75
2022/10/13 05:17:51;;;;;;;20.77;14.07;;;10.50;99.90;;;;;;4985904;28;20122;-75
2022/10/13 05:20:17;;;;;;;21.98;13.70;;;10.50;99.90;;;;;;4986350;28;20048;-75
2022/10/13 05:22:43;;;;;;;22.45;14.52;;;10.50;99.90;;;;;;4990847;28;20073;-74
2022/10/13 05:25:08;;;;;;;19.80;14.45;;;10.60;99.90;;;;;;4992985;28;20041;-74
2022/10/13 05:27:34;;;;;;;22.35;14.60;;;10.60;99.90;;;;;;5006797;28;20132;-74
2022/10/13 05:30:00;;;;;;;21.67;14.13;;;10.60;99.90;;;;;;4976825;28;20073;-74
2022/10/13 05:32:25;;;;;;;22.10;14.63;;;10.60;99.90;;;;;;4987360;28;20515;-74
2022/10/13 05:34:51;;;;;;;21.40;15.00;;;10.60;99.90;;;;;;5019880;28;20074;-74
2022/10/13 05:37:17;;;;;;;20.50;14.25;;;10.50;99.90;;;;;;5025266;28;20053;-74
2022/10/13 05:39:43;;;;;;;24.55;15.27;;;10.50;99.90;;;;;;5020688;28;20050;-74
2022/10/13 05:42:09;;;;;;;22.27;17.67;;;10.60;99.90;;;;;;4992310;28;20369;-74
2022/10/13 05:44:36;;;;;;;22.02;16.98;;;10.50;99.90;;;;;;4973060;28;20038;-74
2022/10/13 05:47:02;;;;;;;23.65;16.05;;;10.60;99.90;;;;;;4992521;28;20042;-73
2022/10/13 05:49:28;;;;;;;22.27;14.93;;;10.60;99.90;;;;;;5005567;28;20072;-73
2022/10/13 05:51:57;;;;;;;23.30;15.65;;;10.60;99.90;;;;;;4989872;28;20070;-73
2022/10/13 05:54:36;;;;;;;22.13;14.15;;;10.60;99.90;;;;;;4974995;28;20046;-73
2022/10/13 05:57:09;;;;;;;21.52;14.60;;;10.70;99.90;;;;;;5023892;28;20054;-73
2022/10/13 05:59:38;;;;;;;;;;;10.70;99.90;;;;;;4973996;28;20078;-74
2022/10/13 06:02:08;;;;;;;22.30;15.15;;;10.70;99.90;;;;;;5004240;28;20065;-73
2022/10/13 06:04:39;;;;;;;22.38;15.30;;;10.70;99.90;;;;;;5008743;28;20480;-73
2022/10/13 06:07:06;;;;;;;24.63;15.15;;;10.70;99.90;;;;;;5005626;28;20042;-73
2022/10/13 06:09:36;;;;;;;20.98;15.02;;;10.70;99.90;;;;;;4991144;28;20432;-73
2022/10/13 06:12:02;;;;;;;21.58;14.65;;;10.70;99.90;;;;;;4988420;28;20034;-73
2022/10/13 06:14:28;;;;;;;23.92;15.80;;;10.70;99.90;;;;;;4986602;28;20054;-74
2022/10/13 06:16:54;;;;;;;22.40;16.42;;;10.70;99.90;;;;;;4990267;28;20485;-74
2022/10/13 06:19:19;;;;;;;25.95;15.23;;;10.80;99.90;;;;;;5022059;28;20534;-74
2022/10/13 06:21:45;;;;;;;23.20;15.38;;;10.70;99.90;;;;;;4989152;28;20034;-74
2022/10/13 06:24:10;;;;;;;24.08;15.70;;;10.70;99.90;;;;;;4989187;28;20069;-74
2022/10/13 06:26:36;;;;;;;25.58;16.05;;;10.70;99.90;;;;;;4974477;28;20030;-74
2022/10/13 06:29:02;;;;;;;22.45;15.40;;;10.70;99.90;;;;;;4973454;28;20121;-74
2022/10/13 06:31:27;;;;;;;22.08;15.27;;;10.70;99.90;;;;;;4974237;28;20046;-74
2022/10/13 06:33:53;;;;;;;22.00;14.85;;;10.70;99.90;;;;;;4993250;28;20034;-74
2022/10/13 06:36:19;;;;;;;24.48;15.88;;;10.80;99.90;;;;;;4994866;28;20378;-74
2022/10/13 06:38:45;;;;;;;21.30;14.88;;;10.70;99.90;;;;;;4977691;28;20038;-74
2022/10/13 06:41:13;;;;;;;22.70;15.70;;;10.80;99.90;;;;;;4992454;28;20085;-73
2022/10/13 06:43:39;;;;;;;20.55;13.90;;;10.70;99.90;;;;;;4978387;28;20046;-74
2022/10/13 06:46:04;;;;;;;24.15;16.25;;;10.80;99.90;;;;;;4974150;28;20125;-75
2022/10/13 06:48:30;;;;;;;22.85;16.20;;;10.70;99.90;;;;;;4994244;28;20080;-75
2022/10/13 06:51:00;;;;;;;23.10;15.90;;;10.70;99.90;;;;;;4979232;28;20038;-75
2022/10/13 06:53:26;;;;;;;22.10;15.50;;;10.70;99.90;;;;;;4994644;28;20042;-75
2022/10/13 06:55:58;;;;;;;23.70;15.80;;;10.70;99.90;;;;;;4995788;28;20137;-74
2022/10/13 06:58:23;;;;;;;21.83;15.10;;;10.70;99.90;;;;;;4978204;28;20057;-75
2022/10/13 07:00:49;;;;;;;24.58;16.30;;;10.80;99.90;;;;;;4994875;28;20038;-75
2022/10/13 07:03:15;;;;;;;25.33;15.43;;;10.80;99.90;;;;;;4979502;28;20042;-75
2022/10/13 07:05:40;;;;;;;24.48;16.20;;;10.80;99.90;;;;;;4979216;28;20038;-75
2022/10/13 07:08:06;;;;;;;26.00;15.50;;;11.00;99.90;;;;;;4978641;28;20084;-75
2022/10/13 07:10:31;;;;;;;23.02;14.90;;;11.00;99.90;;;;;;4995270;28;20050;-75
2022/10/13 07:12:57;;;;;;;21.88;14.98;;;11.00;99.90;;;;;;4978336;28;20054;-75
2022/10/13 07:15:25;;;;;;;22.17;15.05;;;11.00;99.90;;;;;;5010862;28;20035;-75
2022/10/13 07:17:52;;;;;;;22.30;15.32;;;11.10;99.90;;;;;;4994139;28;20046;-75
2022/10/13 07:20:20;;;;;;;20.13;14.55;;;11.10;99.90;;;;;;5027975;28;20125;-75
2022/10/13 07:22:45;;;;;;;22.17;14.82;;;11.10;99.90;;;;;;5025304;28;20077;-75
2022/10/13 07:25:11;;;;;;;22.02;14.95;;;11.20;99.90;;;;;;4995085;28;20070;-75
2022/10/13 07:27:39;;;;;;;18.92;15.00;;;11.20;99.90;;;;;;4977278;28;20480;-75
2022/10/13 07:30:06;;;;;;;20.55;14.23;;;11.10;99.90;;;;;;4977782;28;20045;-75
2022/10/13 07:32:31;;;;;;;22.15;15.80;;;11.20;99.90;;;;;;4977897;28;20534;-75
2022/10/13 07:34:57;;;;;;;20.83;15.07;;;11.20;99.90;;;;;;4976663;28;20042;-75
2022/10/13 07:37:23;;;;;;;21.67;15.25;;;11.20;99.90;;;;;;4994976;28;20140;-75
2022/10/13 07:39:50;;;;;;;22.25;15.90;;;11.20;99.90;;;;;;4981818;28;20077;-76
2022/10/13 07:42:16;;;;;;;23.05;15.30;;;11.20;99.90;;;;;;5023335;28;20523;-75
2022/10/13 07:44:41;;;;;;;22.63;15.55;;;11.30;99.90;;;;;;4990913;28;20066;-75
2022/10/13 07:47:07;;;;;;;20.90;14.70;;;11.50;99.90;;;;;;4971639;28;20030;-75
2022/10/13 07:49:32;;;;;;;23.90;15.82;;;11.60;99.90;;;;;;4990862;28;20041;-76
2022/10/13 07:51:58;;;;;;;21.23;15.25;;;11.60;99.90;;;;;;4993557;28;20548;-75
2022/10/13 07:54:24;;;;;;;23.50;15.40;;;11.70;99.90;;;;;;4993237;28;20150;-76
2022/10/13 07:56:54;;;;;;;23.35;14.82;;;11.90;99.90;;;;;;5004628;28;20054;-74
2022/10/13 07:59:19;;;;;;;21.40;14.52;;;12.00;99.90;;;;;;4999500;28;20049;-75
2022/10/13 08:01:45;;;;;;;22.33;14.68;;;12.20;99.90;;;;;;4984733;28;20172;-75
2022/10/13 08:04:10;;;;;;;23.30;14.85;;;12.20;99.90;;;;;;4975867;28;20046;-75
2022/10/13 08:06:36;;;;;;;21.05;14.93;;;12.30;99.90;;;;;;4976632;28;20034;-75
2022/10/13 08:09:03;;;;;;;19.77;13.98;;;12.30;99.90;;;;;;4991079;28;20042;-75
2022/10/13 08:11:29;;;;;;;21.15;14.63;;;12.30;99.90;;;;;;4993041;28;20061;-75
2022/10/13 08:13:59;;;;;;;23.02;14.50;;;12.40;99.90;;;;;;4976235;28;20045;-75
2022/10/13 08:16:26;;;;;;;21.23;14.77;;;12.50;99.90;;;;;;4977899;28;20053;-75
2022/10/13 08:18:52;;;;;;;20.50;14.05;;;12.50;99.90;;;;;;4977064;28;20046;-75
2022/10/13 08:21:21;;;;;;;18.42;13.25;;;12.60;99.90;;;;;;4993086;28;20511;-75
2022/10/13 08:23:47;;;;;;;21.35;14.40;;;12.60;99.90;;;;;;5022782;28;20041;-75
2022/10/13 08:26:19;;;;;;;20.88;15.07;;;12.70;99.90;;;;;;4975580;28;20039;-75
2022/10/13 08:28:45;;;;;;;21.90;14.27;;;12.70;99.90;;;;;;4978921;28;20460;-75
2022/10/13 08:31:10;;;;;;;20.85;14.68;;;12.70;99.90;;;;;;4994046;28;20088;-75
2022/10/13 08:33:36;;;;;;;23.58;14.77;;;12.80;99.90;;;;;;4975206;28;20061;-75
2022/10/13 08:36:02;;;;;;;20.70;14.23;;;12.80;99.90;;;;;;4976932;28;20402;-75
2022/10/13 08:38:27;;;;;;;22.10;14.98;;;12.90;99.90;;;;;;4993858;28;20412;-75
2022/10/13 08:40:53;;;;;;;20.95;14.93;;;12.90;99.90;;;;;;4975738;28;20445;-75
2022/10/13 08:43:22;;;;;;;21.15;13.88;;;12.90;99.90;;;;;;4991984;28;20034;-75
2022/10/13 08:45:50;;;;;;;20.88;15.60;;;12.90;99.90;;;;;;4975887;28;20034;-75
2022/10/13 08:48:26;;;;;;;20.63;15.18;;;12.90;99.90;;;;;;4992730;28;20046;-75
2022/10/13 08:50:55;;;;;;;21.77;14.68;;;12.90;99.90;;;;;;4990397;28;20051;-75
2022/10/13 08:53:31;;;;;;;23.88;15.57;;;12.90;99.90;;;;;;4983659;28;20039;-75
2022/10/13 08:56:18;;;;;;;23.45;16.05;;;12.90;99.90;;;;;;4993828;28;20046;-75
2022/10/13 08:58:44;;;;;;;23.55;16.02;;;12.90;99.90;;;;;;5008824;28;20101;-75
2022/10/13 09:01:11;;;;;;;22.80;15.13;;;13.00;99.90;;;;;;4981959;28;20038;-75
2022/10/13 09:03:57;;;;;;;21.00;14.70;;;13.00;99.90;;;;;;5015236;28;20041;-75
2022/10/13 09:06:31;;;;;;;21.98;15.30;;;13.00;99.90;;;;;;4971274;28;20042;-75
2022/10/13 09:08:58;;;;;;;21.63;15.38;;;13.00;99.90;;;;;;4987615;28;20561;-75
2022/10/13 09:11:37;;;;;;;25.40;16.92;;;13.10;99.90;;;;;;4985899;28;20081;-75
2022/10/13 09:14:06;;;;;;;23.23;17.02;;;13.10;99.90;;;;;;4976195;28;20504;-75
2022/10/13 09:16:43;;;;;;;25.67;17.35;;;13.10;99.90;;;;;;5008886;28;20034;-75
2022/10/13 09:19:16;;;;;;;25.80;17.52;;;13.10;99.90;;;;;;5007390;28;20512;-75
2022/10/13 09:21:42;;;;;;;24.35;16.27;;;13.10;99.90;;;;;;5008924;28;20393;-75
2022/10/13 09:24:15;;;;;;;24.05;16.48;;;13.20;99.90;;;;;;4992142;28;20042;-75
2022/10/13 09:26:43;;;;;;;24.58;16.48;;;13.20;99.90;;;;;;4990259;28;20042;-75
2022/10/13 09:29:18;;;;;;;26.55;17.23;;;13.20;99.90;;;;;;4976469;28;20042;-75
2022/10/13 09:31:44;;;;;;;26.33;17.88;;;13.20;99.90;;;;;;4972707;28;20501;-75
2022/10/13 09:34:15;;;;;;;26.10;18.08;;;13.30;99.90;;;;;;4974508;28;20050;-75
2022/10/13 09:37:01;;;;;;;26.15;17.52;;;13.30;99.90;;;;;;5020174;28;20126;-75
2022/10/13 09:39:28;;;;;;;23.30;16.88;;;13.30;99.90;;;;;;5012254;28;20509;-75
2022/10/13 09:42:26;;;;;;;25.08;17.50;;;13.20;99.90;;;;;;4990868;28;20038;-74
2022/10/13 09:45:10;;;;;;;26.63;18.42;;;13.30;99.90;;;;;;5004546;28;20049;-74
2022/10/13 09:47:36;;;;;;;24.20;17.35;;;13.40;99.90;;;;;;5005251;28;20435;-76
2022/10/13 09:50:24;;;;;;;23.80;17.73;;;13.30;99.90;;;;;;4992169;28;20073;-76
2022/10/13 09:52:50;;;;;;;21.70;16.83;;;13.30;99.90;;;;;;4975248;28;20039;-76
2022/10/13 09:55:34;;;;;;;23.13;17.42;;;13.40;99.90;;;;;;4976145;28;20454;-76
2022/10/13 09:58:14;;;;;;;25.02;17.73;;;13.40;99.90;;;;;;4974516;28;20054;-75
2022/10/13 10:00:41;;;;;;;26.85;17.35;;;13.40;99.90;;;;;;4956664;28;20035;-76
2022/10/13 10:03:14;;;;;;;23.10;17.17;;;13.30;99.90;;;;;;5005993;28;20485;-75
2022/10/13 10:05:54;;;;;;;21.23;16.83;;;13.30;99.90;;;;;;4992106;28;20081;-75
2022/10/13 10:08:52;;;;;;;24.38;16.30;;;13.40;99.90;;;;;;4978463;28;20050;-75
2022/10/13 10:11:38;;;;;;;22.15;16.15;;;13.40;99.90;;;;;;5023067;28;20038;-76
2022/10/13 10:14:14;;;;;;;20.33;14.93;;;13.40;99.90;;;;;;5025827;28;20050;-75
2022/10/13 10:16:46;;;;;;;20.33;15.68;;;13.50;99.90;;;;;;4994756;28;20074;-75
2022/10/13 10:19:54;;;;;;;19.45;14.40;;;13.50;99.90;;;;;;4979417;28;20051;-76
2022/10/13 10:22:37;;;;;;;20.98;15.75;;;13.40;99.90;;;;;;4994291;28;20397;-76
2022/10/13 10:25:15;;;;;;;22.38;16.65;;;13.40;99.90;;;;;;4992650;28;20503;-75
2022/10/13 10:27:47;;;;;;;21.90;15.80;;;13.40;99.90;;;;;;4995273;28;20042;-75
2022/10/13 10:30:19;;;;;;;21.73;16.42;;;13.40;99.90;;;;;;4993499;28;20047;-76
2022/10/13 10:32:52;;;;;;;18.92;15.45;;;13.40;99.90;;;;;;5007859;28;20122;-74
2022/10/13 10:35:35;;;;;;;;;;;13.40;99.90;;;;;;4976451;28;20042;-75
2022/10/13 10:38:16;;;;;;;20.85;15.93;;;13.40;99.90;;;;;;4977201;28;19922;-75
2022/10/13 10:40:53;;;;;;;22.25;17.45;;;13.30;99.90;;;;;;4977683;28;20037;-75
2022/10/13 10:43:34;;;;;;;21.90;16.08;;;13.40;99.90;;;;;;5026287;28;20492;-75
2022/10/13 10:46:00;;;;;;;24.08;17.27;;;13.40;99.90;;;;;;4995201;28;20042;-75
2022/10/13 10:48:37;;;;;;;21.92;16.40;;;13.40;99.90;;;;;;4979092;28;20405;-76
2022/10/13 10:51:07;;;;;;;21.65;17.35;;;13.40;99.90;;;;;;5019051;28;20038;-75
2022/10/13 10:53:48;;;;;;;22.27;17.02;;;13.40;99.90;;;;;;5001343;28;20039;-75
2022/10/13 10:56:29;;;;;;;25.10;17.02;;;13.50;99.90;;;;;;4978561;28;20043;-75
2022/10/13 10:59:11;;;;;;;22.00;17.00;;;13.50;99.90;;;;;;4977853;28;20400;-75
2022/10/13 11:02:07;;;;;;;23.58;16.75;;;13.50;99.90;;;;;;4995234;28;20050;-75
2022/10/13 11:04:40;;;;;;;21.10;17.67;;;13.50;99.90;;;;;;4992993;28;20038;-75
2022/10/13 11:07:20;;;;;;;21.38;16.23;;;13.50;99.90;;;;;;4993549;28;20042;-75
2022/10/13 11:09:46;;;;;;;23.27;18.23;;;13.50;99.90;;;;;;4978396;28;20034;-75
2022/10/13 11:12:20;;;;;;;21.17;16.77;;;13.50;99.90;;;;;;4977011;28;20038;-75
2022/10/13 11:14:47;;;;;;;21.70;17.63;;;13.60;99.90;;;;;;4993710;28;20045;-75
2022/10/13 11:17:30;;;;;;;24.30;18.40;;;13.60;99.90;;;;;;4972789;28;20077;-76
2022/10/13 11:19:57;;;;;;;21.92;17.08;;;13.60;99.90;;;;;;4994577;28;20125;-76
2022/10/13 11:22:29;;;;;;;20.27;16.77;;;13.60;99.90;;;;;;4976817;28;21053;-75
2022/10/13 11:25:03;;;;;;;24.08;17.30;;;13.70;99.90;;;;;;4995025;28;20519;-76
2022/10/13 11:27:31;;;;;;;21.30;17.75;;;13.70;99.90;;;;;;4976902;28;20403;-76
2022/10/13 11:29:59;;;;;;;24.17;18.40;;;13.70;99.90;;;;;;4989287;28;20039;-76
2022/10/13 11:32:24;;;;;;;24.02;18.98;;;13.70;99.90;;;;;;5010682;28;20082;-76
2022/10/13 11:35:05;;;;;;;25.25;18.75;;;13.80;99.90;;;;;;5010635;28;20124;-75
2022/10/13 11:38:03;;;;;;;26.00;20.13;;;13.70;99.90;;;;;;5010463;28;20042;-76
2022/10/13 11:40:37;;;;;;;24.75;20.05;;;13.60;99.90;;;;;;4977212;28;20034;-76
2022/10/13 11:43:09;;;;;;;26.70;20.13;;;13.60;99.90;;;;;;4994136;28;20034;-76
2022/10/13 11:46:23;;;;;;;26.88;20.65;;;13.60;99.90;;;;;;5011069;28;20408;-76
2022/10/13 11:49:08;;;;;;;25.67;20.75;;;13.60;99.90;;;;;;4941841;28;20051;-76
2022/10/13 11:52:06;;;;;;;25.38;21.63;;;13.60;99.90;;;;;;4992551;28;20508;-76
2022/10/13 11:54:44;;;;;;;25.85;20.92;;;13.60;99.90;;;;;;5010115;28;20132;-76
2022/10/13 11:57:21;;;;;;;30.48;22.45;;;13.60;99.90;;;;;;4991752;28;20108;-76
2022/10/13 11:59:48;;;;;;;25.85;21.55;;;13.60;99.90;;;;;;4991818;28;20128;-76
2022/10/13 12:02:15;;;;;;;27.00;21.65;;;13.60;99.90;;;;;;5007298;28;20035;-76
2022/10/13 12:04:42;;;;;;;28.67;22.20;;;13.60;99.90;;;;;;4993296;28;20062;-76
2022/10/13 12:07:10;;;;;;;30.40;22.83;;;13.70;99.90;;;;;;5010352;28;20129;-76
2022/10/13 12:09:48;;;;;;;30.40;23.30;;;13.70;99.90;;;;;;5005387;28;20097;-76
2022/10/13 12:12:16;;;;;;;28.95;22.88;;;13.70;99.90;;;;;;5010121;28;20153;-76
2022/10/13 12:14:46;;;;;;;30.45;23.02;;;13.70;99.90;;;;;;4993729;28;20046;-77
2022/10/13 12:17:19;;;;;;;31.13;23.88;;;13.80;99.90;;;;;;4975907;28;20049;-76
2022/10/13 12:19:44;;;;;;;30.42;23.00;;;13.80;99.90;;;;;;5006791;28;20404;-76
2022/10/13 12:22:11;;;;;;;29.98;24.13;;;13.80;99.90;;;;;;4992510;28;20034;-76
2022/10/13 12:24:37;;;;;;;28.83;22.67;;;13.80;99.90;;;;;;4975880;28;20447;-76
2022/10/13 12:27:20;;;;;;;28.67;23.33;;;13.80;99.90;;;;;;4975884;28;20034;-76
2022/10/13 12:29:46;;;;;;;28.92;23.30;;;13.90;99.90;;;;;;5006929;28;20031;-76
2022/10/13 12:32:25;;;;;;;30.15;22.95;;;13.90;99.90;;;;;;4985261;28;20097;-76
2022/10/13 12:34:51;;;;;;;31.63;22.50;;;13.90;99.90;;;;;;4975869;28;20081;-76
2022/10/13 12:37:27;;;;;;;27.98;22.80;;;13.90;99.90;;;;;;5021903;28;20026;-76
2022/10/13 12:39:56;;;;;;;27.80;21.85;;;14.00;99.90;;;;;;4991437;28;20057;-75
2022/10/13 12:42:28;;;;;;;29.80;23.30;;;13.90;99.90;;;;;;4989572;28;20401;-76
2022/10/13 12:44:54;;;;;;;27.58;21.63;;;14.00;99.90;;;;;;4995261;28;20033;-75